sensor_id;sensor_type;location;lat;lon;timestamp;pressure;altitude;pressure_sealevel;temperature;humidity
20368;BME280;10343;52.402;9.796;2023-03-31T00:00:32;99842.94;;;22.25;43.52
20368;BME280;10343;52.402;9.796;2023-03-31T00:03:00;99832.00;;;22.78;42.91
20368;BME280;10343;52.402;9.796;2023-03-31T00:05:28;99825.75;;;22.47;42.65
20368;BME280;10343;52.402;9.796;2023-03-31T00:07:58;99821.56;;;22.64;42.63
20368;BME280;10343;52.402;9.796;2023-03-31T00:10:28;99823.34;;;22.32;43.35
20368;BME280;10343;52.402;9.796;2023-03-31T00:12:59;99830.75;;;22.51;43.06
20368;BME280;10343;52.402;9.796;2023-03-31T00:15:28;99825.63;;;22.79;42.02
20368;BME280;10343;52.402;9.796;2023-03-31T00:17:56;99829.16;;;22.28;43.35
20368;BME280;10343;52.402;9.796;2023-03-31T00:20:26;99824.41;;;23.03;41.74
20368;BME280;10343;52.402;9.796;2023-03-31T00:22:54;99815.03;;;22.97;41.62
20368;BME280;10343;52.402;9.796;2023-03-31T00:25:23;99809.41;;;22.79;41.90
20368;BME280;10343;52.402;9.796;2023-03-31T00:27:51;99806.16;;;22.54;41.97
20368;BME280;10343;52.402;9.796;2023-03-31T00:30:20;99804.97;;;22.05;43.37
20368;BME280;10343;52.402;9.796;2023-03-31T00:32:48;99804.41;;;22.01;43.41
20368;BME280;10343;52.402;9.796;2023-03-31T00:35:16;99810.38;;;22.05;42.81
20368;BME280;10343;52.402;9.796;2023-03-31T00:37:44;99806.28;;;21.89;43.29
20368;BME280;10343;52.402;9.796;2023-03-31T00:40:12;99798.94;;;22.34;42.88
20368;BME280;10343;52.402;9.796;2023-03-31T00:42:41;99797.16;;;21.81;43.64
20368;BME280;10343;52.402;9.796;2023-03-31T00:45:24;99793.78;;;21.88;43.41
20368;BME280;10343;52.402;9.796;2023-03-31T00:48:00;99792.09;;;21.87;43.43
20368;BME280;10343;52.402;9.796;2023-03-31T00:50:32;99803.09;;;21.63;43.81
20368;BME280;10343;52.402;9.796;2023-03-31T00:53:05;99788.16;;;21.80;43.31
20368;BME280;10343;52.402;9.796;2023-03-31T00:55:40;99786.88;;;22.17;42.61
20368;BME280;10343;52.402;9.796;2023-03-31T00:58:09;99781.28;;;21.87;42.84
20368;BME280;10343;52.402;9.796;2023-03-31T01:00:41;99783.22;;;22.18;42.30
20368;BME280;10343;52.402;9.796;2023-03-31T01:03:09;99777.66;;;22.19;42.32
20368;BME280;10343;52.402;9.796;2023-03-31T01:05:41;99778.25;;;22.02;42.24
20368;BME280;10343;52.402;9.796;2023-03-31T01:08:12;99774.38;;;21.95;43.07
20368;BME280;10343;52.402;9.796;2023-03-31T01:10:44;99765.94;;;21.67;43.20
20368;BME280;10343;52.402;9.796;2023-03-31T01:13:17;99753.63;;;21.74;42.94
20368;BME280;10343;52.402;9.796;2023-03-31T01:15:47;99754.53;;;22.27;42.03
20368;BME280;10343;52.402;9.796;2023-03-31T01:18:15;99748.78;;;22.62;41.29
20368;BME280;10343;52.402;9.796;2023-03-31T01:21:02;99751.81;;;21.96;42.06
20368;BME280;10343;52.402;9.796;2023-03-31T01:23:45;99736.63;;;22.26;41.68
20368;BME280;10343;52.402;9.796;2023-03-31T01:26:48;99745.06;;;21.69;42.74
20368;BME280;10343;52.402;9.796;2023-03-31T01:29:38;99731.38;;;21.61;43.21
20368;BME280;10343;52.402;9.796;2023-03-31T01:41:41;99712.19;;;21.43;43.59
20368;BME280;10343;52.402;9.796;2023-03-31T01:44:19;99712.72;;;21.36;43.53
20368;BME280;10343;52.402;9.796;2023-03-31T01:46:53;99700.13;;;22.00;42.81
20368;BME280;10343;52.402;9.796;2023-03-31T01:49:26;99701.91;;;21.90;42.46
20368;BME280;10343;52.402;9.796;2023-03-31T01:52:02;99697.06;;;21.84;42.79
20368;BME280;10343;52.402;9.796;2023-03-31T01:54:37;99692.88;;;22.22;41.73
20368;BME280;10343;52.402;9.796;2023-03-31T01:57:11;99698.75;;;22.68;40.88
20368;BME280;10343;52.402;9.796;2023-03-31T01:59:48;99679.16;;;22.35;41.36
20368;BME280;10343;52.402;9.796;2023-03-31T02:02:26;99679.56;;;22.09;41.77
20368;BME280;10343;52.402;9.796;2023-03-31T02:04:57;99673.56;;;21.21;43.38
20368;BME280;10343;52.402;9.796;2023-03-31T02:07:30;99666.38;;;22.06;42.07
20368;BME280;10343;52.402;9.796;2023-03-31T02:10:04;99669.66;;;21.46;42.86
20368;BME280;10343;52.402;9.796;2023-03-31T02:12:37;99664.13;;;21.48;43.04
20368;BME280;10343;52.402;9.796;2023-03-31T02:15:09;99655.56;;;21.75;42.45
20368;BME280;10343;52.402;9.796;2023-03-31T02:17:39;99658.38;;;21.52;43.02
20368;BME280;10343;52.402;9.796;2023-03-31T02:20:13;99654.94;;;21.50;43.11
20368;BME280;10343;52.402;9.796;2023-03-31T02:22:44;99656.63;;;21.51;43.14
20368;BME280;10343;52.402;9.796;2023-03-31T02:25:16;99646.81;;;21.62;42.76
20368;BME280;10343;52.402;9.796;2023-03-31T02:27:50;99644.56;;;21.67;42.67
20368;BME280;10343;52.402;9.796;2023-03-31T02:30:20;99637.31;;;22.19;41.49
20368;BME280;10343;52.402;9.796;2023-03-31T02:32:48;99639.28;;;21.86;42.15
20368;BME280;10343;52.402;9.796;2023-03-31T02:35:18;99639.56;;;21.62;42.50
20368;BME280;10343;52.402;9.796;2023-03-31T02:37:47;99630.19;;;21.45;42.64
20368;BME280;10343;52.402;9.796;2023-03-31T02:40:18;99628.72;;;21.52;42.92
20368;BME280;10343;52.402;9.796;2023-03-31T02:42:48;99624.25;;;21.63;42.78
20368;BME280;10343;52.402;9.796;2023-03-31T02:45:37;99617.59;;;21.98;41.87
20368;BME280;10343;52.402;9.796;2023-03-31T02:48:09;99611.31;;;22.69;40.53
20368;BME280;10343;52.402;9.796;2023-03-31T02:53:40;99608.72;;;21.55;42.89
20368;BME280;10343;52.402;9.796;2023-03-31T02:56:20;99602.56;;;22.05;42.02
20368;BME280;10343;52.402;9.796;2023-03-31T03:02:07;99601.00;;;21.50;42.65
20368;BME280;10343;52.402;9.796;2023-03-31T03:05:11;99595.09;;;21.57;42.60
20368;BME280;10343;52.402;9.796;2023-03-31T03:08:14;99592.69;;;21.00;43.94
20368;BME280;10343;52.402;9.796;2023-03-31T03:10:57;99582.91;;;21.41;43.02
20368;BME280;10343;52.402;9.796;2023-03-31T03:13:34;99590.88;;;21.64;42.83
20368;BME280;10343;52.402;9.796;2023-03-31T03:16:06;99594.34;;;20.80;44.08
20368;BME280;10343;52.402;9.796;2023-03-31T03:18:37;99588.19;;;21.43;43.21
20368;BME280;10343;52.402;9.796;2023-03-31T03:21:05;99594.75;;;21.08;43.64
20368;BME280;10343;52.402;9.796;2023-03-31T03:23:33;99581.78;;;21.23;43.51
20368;BME280;10343;52.402;9.796;2023-03-31T03:26:01;99583.00;;;21.82;42.27
20368;BME280;10343;52.402;9.796;2023-03-31T03:28:29;99583.97;;;21.29;43.48
20368;BME280;10343;52.402;9.796;2023-03-31T03:30:57;99567.88;;;21.17;43.41
20368;BME280;10343;52.402;9.796;2023-03-31T03:33:25;99562.38;;;21.61;42.87
20368;BME280;10343;52.402;9.796;2023-03-31T03:35:54;99566.44;;;21.13;43.38
20368;BME280;10343;52.402;9.796;2023-03-31T03:38:22;99556.63;;;20.91;44.14
20368;BME280;10343;52.402;9.796;2023-03-31T03:40:51;99550.31;;;21.65;42.58
20368;BME280;10343;52.402;9.796;2023-03-31T03:43:19;99549.03;;;20.41;44.84
20368;BME280;10343;52.402;9.796;2023-03-31T03:45:47;99537.53;;;21.67;42.63
20368;BME280;10343;52.402;9.796;2023-03-31T03:48:15;99539.53;;;21.23;43.06
20368;BME280;10343;52.402;9.796;2023-03-31T03:50:44;99527.00;;;22.36;41.15
20368;BME280;10343;52.402;9.796;2023-03-31T03:53:14;99513.19;;;22.39;41.20
20368;BME280;10343;52.402;9.796;2023-03-31T03:55:42;99517.44;;;22.32;40.85
20368;BME280;10343;52.402;9.796;2023-03-31T03:58:11;99512.22;;;22.50;40.48
20368;BME280;10343;52.402;9.796;2023-03-31T04:00:39;99506.47;;;22.23;41.05
20368;BME280;10343;52.402;9.796;2023-03-31T04:03:07;99496.56;;;22.53;40.30
20368;BME280;10343;52.402;9.796;2023-03-31T04:05:35;99508.41;;;22.02;41.41
20368;BME280;10343;52.402;9.796;2023-03-31T04:08:03;99500.91;;;22.15;41.17
20368;BME280;10343;52.402;9.796;2023-03-31T04:10:33;99492.91;;;21.53;42.10
20368;BME280;10343;52.402;9.796;2023-03-31T04:13:01;99485.56;;;22.06;41.04
20368;BME280;10343;52.402;9.796;2023-03-31T04:15:29;99483.75;;;22.16;40.90
20368;BME280;10343;52.402;9.796;2023-03-31T04:17:57;99481.56;;;21.60;42.06
20368;BME280;10343;52.402;9.796;2023-03-31T04:20:25;99469.41;;;22.45;40.48
20368;BME280;10343;52.402;9.796;2023-03-31T04:22:57;99472.66;;;21.38;42.38
20368;BME280;10343;52.402;9.796;2023-03-31T04:25:25;99455.38;;;22.42;40.47
20368;BME280;10343;52.402;9.796;2023-03-31T04:27:57;99453.78;;;22.68;40.22
20368;BME280;10343;52.402;9.796;2023-03-31T04:30:26;99446.50;;;22.10;40.66
20368;BME280;10343;52.402;9.796;2023-03-31T04:32:58;99444.97;;;21.05;42.79
20368;BME280;10343;52.402;9.796;2023-03-31T04:35:28;99434.03;;;21.28;42.37
20368;BME280;10343;52.402;9.796;2023-03-31T04:38:14;99425.84;;;21.39;42.43
20368;BME280;10343;52.402;9.796;2023-03-31T04:40:45;99418.50;;;21.92;41.64
20368;BME280;10343;52.402;9.796;2023-03-31T04:43:15;99408.25;;;21.85;41.46
20368;BME280;10343;52.402;9.796;2023-03-31T04:45:43;99408.28;;;21.45;41.88
20368;BME280;10343;52.402;9.796;2023-03-31T04:48:12;99410.59;;;20.34;43.79
20368;BME280;10343;52.402;9.796;2023-03-31T04:50:40;99389.19;;;21.27;42.95
20368;BME280;10343;52.402;9.796;2023-03-31T04:53:08;99385.69;;;21.77;41.28
20368;BME280;10343;52.402;9.796;2023-03-31T04:55:36;99393.75;;;20.74;43.62
20368;BME280;10343;52.402;9.796;2023-03-31T04:58:04;99378.19;;;21.09;43.19
20368;BME280;10343;52.402;9.796;2023-03-31T05:00:33;99367.91;;;21.24;42.89
20368;BME280;10343;52.402;9.796;2023-03-31T05:03:01;99361.50;;;21.55;42.32
20368;BME280;10343;52.402;9.796;2023-03-31T05:05:29;99359.28;;;21.80;41.69
20368;BME280;10343;52.402;9.796;2023-03-31T05:07:57;99348.78;;;22.06;41.11
20368;BME280;10343;52.402;9.796;2023-03-31T05:10:25;99340.69;;;22.06;41.09
20368;BME280;10343;52.402;9.796;2023-03-31T05:12:53;99348.75;;;21.77;41.84
20368;BME280;10343;52.402;9.796;2023-03-31T05:15:21;99343.28;;;21.38;42.72
20368;BME280;10343;52.402;9.796;2023-03-31T05:17:51;99337.38;;;21.64;42.31
20368;BME280;10343;52.402;9.796;2023-03-31T05:20:20;99339.41;;;22.50;40.94
20368;BME280;10343;52.402;9.796;2023-03-31T05:22:48;99343.06;;;22.59;40.52
20368;BME280;10343;52.402;9.796;2023-03-31T05:25:16;99340.91;;;23.10;39.51
20368;BME280;10343;52.402;9.796;2023-03-31T05:27:45;99339.47;;;23.15;39.17
20368;BME280;10343;52.402;9.796;2023-03-31T05:30:16;99338.97;;;23.02;39.68
20368;BME280;10343;52.402;9.796;2023-03-31T05:32:44;99344.22;;;22.46;40.83
20368;BME280;10343;52.402;9.796;2023-03-31T05:35:14;99341.59;;;22.74;40.14
20368;BME280;10343;52.402;9.796;2023-03-31T05:37:43;99340.53;;;21.69;42.18
20368;BME280;10343;52.402;9.796;2023-03-31T05:40:11;99334.47;;;21.36;43.20
20368;BME280;10343;52.402;9.796;2023-03-31T05:42:39;99342.72;;;20.94;44.22
20368;BME280;10343;52.402;9.796;2023-03-31T05:45:09;99336.56;;;21.73;42.79
20368;BME280;10343;52.402;9.796;2023-03-31T05:47:37;99327.47;;;21.94;42.69
20368;BME280;10343;52.402;9.796;2023-03-31T05:50:06;99339.16;;;22.04;41.89
20368;BME280;10343;52.402;9.796;2023-03-31T05:52:37;99341.13;;;22.41;41.53
20368;BME280;10343;52.402;9.796;2023-03-31T05:55:06;99335.94;;;20.78;43.73
20368;BME280;10343;52.402;9.796;2023-03-31T05:57:34;99331.53;;;21.49;43.13
20368;BME280;10343;52.402;9.796;2023-03-31T06:00:03;99327.00;;;22.57;41.31
20368;BME280;10343;52.402;9.796;2023-03-31T06:02:34;99330.16;;;21.54;43.32
20368;BME280;10343;52.402;9.796;2023-03-31T06:05:03;99319.00;;;20.87;44.61
20368;BME280;10343;52.402;9.796;2023-03-31T06:07:31;99319.50;;;22.21;42.45
20368;BME280;10343;52.402;9.796;2023-03-31T06:10:00;99303.84;;;21.37;43.98
20368;BME280;10343;52.402;9.796;2023-03-31T06:12:30;99297.38;;;21.59;43.91
20368;BME280;10343;52.402;9.796;2023-03-31T06:14:59;99297.84;;;22.70;41.88
20368;BME280;10343;52.402;9.796;2023-03-31T06:17:27;99291.44;;;21.75;43.22
20368;BME280;10343;52.402;9.796;2023-03-31T06:19:55;99307.28;;;22.27;42.21
20368;BME280;10343;52.402;9.796;2023-03-31T06:22:24;99291.09;;;22.17;42.71
20368;BME280;10343;52.402;9.796;2023-03-31T06:24:52;99278.59;;;23.11;41.04
20368;BME280;10343;52.402;9.796;2023-03-31T06:27:21;99287.94;;;22.89;41.48
20368;BME280;10343;52.402;9.796;2023-03-31T06:29:50;99285.75;;;21.88;43.24
20368;BME280;10343;52.402;9.796;2023-03-31T06:32:27;99280.69;;;23.45;40.50
20368;BME280;10343;52.402;9.796;2023-03-31T06:34:57;99274.56;;;23.25;40.82
20368;BME280;10343;52.402;9.796;2023-03-31T06:37:25;99279.22;;;22.67;41.32
20368;BME280;10343;52.402;9.796;2023-03-31T06:39:54;99275.94;;;23.01;40.64
20368;BME280;10343;52.402;9.796;2023-03-31T06:42:25;99274.78;;;22.76;41.50
20368;BME280;10343;52.402;9.796;2023-03-31T06:44:57;99283.91;;;22.65;41.57
20368;BME280;10343;52.402;9.796;2023-03-31T06:47:25;99280.59;;;22.34;42.21
20368;BME280;10343;52.402;9.796;2023-03-31T06:49:56;99276.97;;;22.90;41.26
20368;BME280;10343;52.402;9.796;2023-03-31T06:52:28;99282.47;;;22.71;42.08
20368;BME280;10343;52.402;9.796;2023-03-31T06:54:56;99278.91;;;21.94;43.90
20368;BME280;10343;52.402;9.796;2023-03-31T06:57:25;99268.25;;;20.83;46.26
20368;BME280;10343;52.402;9.796;2023-03-31T06:59:54;99266.72;;;21.60;44.93
20368;BME280;10343;52.402;9.796;2023-03-31T07:02:32;99258.78;;;21.78;44.73
20368;BME280;10343;52.402;9.796;2023-03-31T07:05:05;99258.19;;;21.75;45.12
20368;BME280;10343;52.402;9.796;2023-03-31T07:07:35;99254.44;;;22.44;43.51
20368;BME280;10343;52.402;9.796;2023-03-31T07:10:04;99242.34;;;23.04;42.86
20368;BME280;10343;52.402;9.796;2023-03-31T07:12:36;99243.50;;;23.29;42.00
20368;BME280;10343;52.402;9.796;2023-03-31T07:15:08;99245.69;;;22.03;44.04
20368;BME280;10343;52.402;9.796;2023-03-31T07:17:55;99236.22;;;20.90;47.16
20368;BME280;10343;52.402;9.796;2023-03-31T07:20:29;99227.78;;;21.24;46.71
20368;BME280;10343;52.402;9.796;2023-03-31T07:22:58;99226.00;;;21.53;46.11
20368;BME280;10343;52.402;9.796;2023-03-31T07:25:26;99230.69;;;21.61;45.74
20368;BME280;10343;52.402;9.796;2023-03-31T07:27:56;99236.25;;;22.27;44.25
20368;BME280;10343;52.402;9.796;2023-03-31T07:30:24;99233.25;;;21.63;45.66
20368;BME280;10343;52.402;9.796;2023-03-31T07:32:53;99229.53;;;21.64;45.14
20368;BME280;10343;52.402;9.796;2023-03-31T07:35:21;99231.81;;;21.59;45.43
20368;BME280;10343;52.402;9.796;2023-03-31T07:37:52;99221.28;;;21.95;44.64
20368;BME280;10343;52.402;9.796;2023-03-31T07:40:30;99218.13;;;22.09;44.54
20368;BME280;10343;52.402;9.796;2023-03-31T07:43:00;99210.47;;;22.04;44.55
20368;BME280;10343;52.402;9.796;2023-03-31T07:45:28;99200.44;;;23.00;42.23
20368;BME280;10343;52.402;9.796;2023-03-31T07:47:57;99200.38;;;21.97;44.33
20368;BME280;10343;52.402;9.796;2023-03-31T07:50:26;99196.44;;;21.91;44.75
20368;BME280;10343;52.402;9.796;2023-03-31T07:52:57;99191.94;;;21.52;45.42
20368;BME280;10343;52.402;9.796;2023-03-31T07:55:25;99184.34;;;21.07;46.82
20368;BME280;10343;52.402;9.796;2023-03-31T07:57:53;99184.25;;;21.48;46.14
20368;BME280;10343;52.402;9.796;2023-03-31T08:00:23;99179.56;;;21.20;47.06
20368;BME280;10343;52.402;9.796;2023-03-31T08:02:51;99173.88;;;21.24;46.56
20368;BME280;10343;52.402;9.796;2023-03-31T08:05:20;99176.16;;;21.67;45.94
20368;BME280;10343;52.402;9.796;2023-03-31T08:07:48;99155.94;;;22.01;44.97
20368;BME280;10343;52.402;9.796;2023-03-31T08:10:20;99155.28;;;21.01;46.87
20368;BME280;10343;52.402;9.796;2023-03-31T08:12:48;99159.06;;;20.69;48.48
20368;BME280;10343;52.402;9.796;2023-03-31T08:15:17;99150.34;;;20.56;49.18
20368;BME280;10343;52.402;9.796;2023-03-31T08:17:46;99144.50;;;20.50;49.03
20368;BME280;10343;52.402;9.796;2023-03-31T08:20:14;99130.88;;;20.73;48.15
20368;BME280;10343;52.402;9.796;2023-03-31T08:22:43;99131.03;;;20.81;48.76
20368;BME280;10343;52.402;9.796;2023-03-31T08:25:11;99136.09;;;20.34;49.45
20368;BME280;10343;52.402;9.796;2023-03-31T08:27:39;99127.91;;;21.35;46.88
20368;BME280;10343;52.402;9.796;2023-03-31T08:30:09;99126.47;;;21.80;45.84
20368;BME280;10343;52.402;9.796;2023-03-31T08:32:37;99114.00;;;20.81;48.26
20368;BME280;10343;52.402;9.796;2023-03-31T08:35:07;99114.88;;;21.11;47.73
20368;BME280;10343;52.402;9.796;2023-03-31T08:37:36;99107.50;;;21.03;47.71
20368;BME280;10343;52.402;9.796;2023-03-31T08:40:05;99106.94;;;21.29;47.02
20368;BME280;10343;52.402;9.796;2023-03-31T08:42:38;99091.75;;;22.60;44.57
20368;BME280;10343;52.402;9.796;2023-03-31T08:45:11;99091.72;;;22.42;44.81
20368;BME280;10343;52.402;9.796;2023-03-31T08:47:45;99093.03;;;22.38;44.58
20368;BME280;10343;52.402;9.796;2023-03-31T08:50:22;99089.25;;;22.95;42.91
20368;BME280;10343;52.402;9.796;2023-03-31T08:52:56;99086.38;;;24.03;41.40
20368;BME280;10343;52.402;9.796;2023-03-31T08:55:28;99078.59;;;23.73;41.45
20368;BME280;10343;52.402;9.796;2023-03-31T08:58:02;99070.81;;;24.05;40.56
20368;BME280;10343;52.402;9.796;2023-03-31T09:00:39;99069.22;;;23.41;41.85
20368;BME280;10343;52.402;9.796;2023-03-31T09:03:16;99073.06;;;23.57;41.35
20368;BME280;10343;52.402;9.796;2023-03-31T09:05:51;99075.56;;;22.04;44.43
20368;BME280;10343;52.402;9.796;2023-03-31T09:08:40;99085.91;;;21.62;45.84
20368;BME280;10343;52.402;9.796;2023-03-31T09:11:19;99080.84;;;21.19;47.16
20368;BME280;10343;52.402;9.796;2023-03-31T09:14:09;99082.25;;;21.63;46.33
20368;BME280;10343;52.402;9.796;2023-03-31T09:16:44;99069.47;;;22.30;44.84
20368;BME280;10343;52.402;9.796;2023-03-31T09:19:18;99071.94;;;22.69;44.67
20368;BME280;10343;52.402;9.796;2023-03-31T09:21:54;99071.25;;;22.12;44.90
20368;BME280;10343;52.402;9.796;2023-03-31T09:24:26;99071.72;;;21.40;48.46
20368;BME280;10343;52.402;9.796;2023-03-31T09:27:00;99072.84;;;21.67;47.93
20368;BME280;10343;52.402;9.796;2023-03-31T09:29:33;99062.66;;;21.61;48.05
20368;BME280;10343;52.402;9.796;2023-03-31T09:32:13;99066.63;;;21.57;48.51
20368;BME280;10343;52.402;9.796;2023-03-31T09:34:42;99061.28;;;21.17;48.73
20368;BME280;10343;52.402;9.796;2023-03-31T09:37:13;99051.47;;;21.93;48.05
20368;BME280;10343;52.402;9.796;2023-03-31T09:39:41;99052.75;;;21.89;48.05
20368;BME280;10343;52.402;9.796;2023-03-31T09:42:10;99043.16;;;22.32;45.86
20368;BME280;10343;52.402;9.796;2023-03-31T09:44:40;99049.81;;;21.82;46.90
20368;BME280;10343;52.402;9.796;2023-03-31T09:47:14;99048.47;;;21.59;47.67
20368;BME280;10343;52.402;9.796;2023-03-31T09:49:45;99051.66;;;21.05;47.52
20368;BME280;10343;52.402;9.796;2023-03-31T09:52:26;99056.75;;;20.69;49.02
20368;BME280;10343;52.402;9.796;2023-03-31T09:54:58;99044.00;;;21.10;49.80
20368;BME280;10343;52.402;9.796;2023-03-31T09:57:28;99036.72;;;20.62;49.49
20368;BME280;10343;52.402;9.796;2023-03-31T10:00:05;99034.16;;;21.86;47.52
20368;BME280;10343;52.402;9.796;2023-03-31T10:02:41;99030.81;;;22.30;46.80
20368;BME280;10343;52.402;9.796;2023-03-31T10:05:29;99030.81;;;22.30;46.04
20368;BME280;10343;52.402;9.796;2023-03-31T10:08:25;99032.78;;;20.76;48.80
20368;BME280;10343;52.402;9.796;2023-03-31T10:10:55;99024.16;;;20.92;49.46
20368;BME280;10343;52.402;9.796;2023-03-31T10:13:25;99022.91;;;21.63;47.96
20368;BME280;10343;52.402;9.796;2023-03-31T10:16:02;99025.53;;;22.10;46.22
20368;BME280;10343;52.402;9.796;2023-03-31T10:18:34;99013.34;;;22.06;45.68
20368;BME280;10343;52.402;9.796;2023-03-31T10:21:04;99019.06;;;22.03;45.82
20368;BME280;10343;52.402;9.796;2023-03-31T10:23:35;99011.94;;;22.02;45.97
20368;BME280;10343;52.402;9.796;2023-03-31T10:26:05;99019.00;;;22.13;46.58
20368;BME280;10343;52.402;9.796;2023-03-31T10:28:34;99015.63;;;22.01;45.97
20368;BME280;10343;52.402;9.796;2023-03-31T10:31:03;99019.84;;;21.38;46.87
20368;BME280;10343;52.402;9.796;2023-03-31T10:33:32;99013.53;;;21.67;46.90
20368;BME280;10343;52.402;9.796;2023-03-31T10:36:07;99018.44;;;21.34;46.98
20368;BME280;10343;52.402;9.796;2023-03-31T10:38:43;99016.25;;;21.95;45.08
20368;BME280;10343;52.402;9.796;2023-03-31T10:41:17;99015.66;;;21.63;46.43
20368;BME280;10343;52.402;9.796;2023-03-31T10:43:49;99008.91;;;22.97;42.99
20368;BME280;10343;52.402;9.796;2023-03-31T10:46:19;99004.09;;;23.27;42.59
20368;BME280;10343;52.402;9.796;2023-03-31T10:48:46;99011.88;;;21.27;45.14
20368;BME280;10343;52.402;9.796;2023-03-31T10:51:17;99009.16;;;22.85;43.48
20368;BME280;10343;52.402;9.796;2023-03-31T10:53:48;99010.72;;;21.39;45.53
20368;BME280;10343;52.402;9.796;2023-03-31T10:56:33;99011.56;;;22.25;44.37
20368;BME280;10343;52.402;9.796;2023-03-31T10:59:27;99015.44;;;21.84;44.25
20368;BME280;10343;52.402;9.796;2023-03-31T11:02:08;99007.72;;;22.45;44.70
20368;BME280;10343;52.402;9.796;2023-03-31T11:04:47;99008.91;;;22.43;43.14
20368;BME280;10343;52.402;9.796;2023-03-31T11:07:27;99013.34;;;21.11;45.53
20368;BME280;10343;52.402;9.796;2023-03-31T11:10:20;99006.38;;;22.41;43.74
20368;BME280;10343;52.402;9.796;2023-03-31T11:12:59;99016.44;;;22.39;44.75
20368;BME280;10343;52.402;9.796;2023-03-31T11:15:32;99003.81;;;22.30;44.86
20368;BME280;10343;52.402;9.796;2023-03-31T11:18:15;99007.31;;;21.57;45.51
20368;BME280;10343;52.402;9.796;2023-03-31T11:20:52;99005.69;;;21.16;46.82
20368;BME280;10343;52.402;9.796;2023-03-31T11:23:33;99010.94;;;22.31;45.13
20368;BME280;10343;52.402;9.796;2023-03-31T11:26:09;99019.03;;;21.08;46.78
20368;BME280;10343;52.402;9.796;2023-03-31T11:28:56;99017.16;;;22.41;45.13
20368;BME280;10343;52.402;9.796;2023-03-31T11:31:35;99001.28;;;21.15;47.28
20368;BME280;10343;52.402;9.796;2023-03-31T11:37:21;99002.25;;;22.91;43.91
20368;BME280;10343;52.402;9.796;2023-03-31T11:40:10;98993.38;;;21.51;46.24
20368;BME280;10343;52.402;9.796;2023-03-31T11:42:48;98995.97;;;21.91;46.71
20368;BME280;10343;52.402;9.796;2023-03-31T11:45:18;98991.69;;;22.62;44.71
20368;BME280;10343;52.402;9.796;2023-03-31T11:47:50;98988.16;;;22.43;45.10
20368;BME280;10343;52.402;9.796;2023-03-31T11:50:24;98971.41;;;22.58;44.14
20368;BME280;10343;52.402;9.796;2023-03-31T11:52:58;98977.19;;;24.20;41.63
20368;BME280;10343;52.402;9.796;2023-03-31T11:55:29;98976.50;;;23.23;42.36
20368;BME280;10343;52.402;9.796;2023-03-31T11:58:03;98978.97;;;23.69;42.60
20368;BME280;10343;52.402;9.796;2023-03-31T12:00:37;98975.59;;;23.67;42.38
20368;BME280;10343;52.402;9.796;2023-03-31T12:03:11;98977.50;;;23.48;43.11
20368;BME280;10343;52.402;9.796;2023-03-31T12:05:43;98974.78;;;23.83;42.01
20368;BME280;10343;52.402;9.796;2023-03-31T12:08:15;98974.78;;;24.25;41.07
20368;BME280;10343;52.402;9.796;2023-03-31T12:10:49;98974.94;;;22.94;43.57
20368;BME280;10343;52.402;9.796;2023-03-31T12:13:37;98968.03;;;24.21;41.19
20368;BME280;10343;52.402;9.796;2023-03-31T12:16:10;98964.63;;;22.71;44.53
20368;BME280;10343;52.402;9.796;2023-03-31T12:18:44;98961.19;;;23.32;43.08
20368;BME280;10343;52.402;9.796;2023-03-31T12:21:21;98950.50;;;24.91;39.81
20368;BME280;10343;52.402;9.796;2023-03-31T12:23:49;98941.28;;;25.50;38.74
20368;BME280;10343;52.402;9.796;2023-03-31T12:26:31;98938.81;;;24.50;39.81
20368;BME280;10343;52.402;9.796;2023-03-31T12:29:14;98935.94;;;25.01;39.96
20368;BME280;10343;52.402;9.796;2023-03-31T12:31:46;98930.38;;;25.67;38.28
20368;BME280;10343;52.402;9.796;2023-03-31T12:34:17;98922.25;;;26.76;36.77
20368;BME280;10343;52.402;9.796;2023-03-31T12:36:57;98923.66;;;26.72;36.12
20368;BME280;10343;52.402;9.796;2023-03-31T12:39:40;98917.44;;;27.16;35.19
20368;BME280;10343;52.402;9.796;2023-03-31T12:42:31;98908.84;;;26.74;35.33
20368;BME280;10343;52.402;9.796;2023-03-31T12:45:11;98920.41;;;24.70;38.14
20368;BME280;10343;52.402;9.796;2023-03-31T12:47:56;98904.91;;;26.54;36.42
20368;BME280;10343;52.402;9.796;2023-03-31T12:50:40;98893.72;;;27.10;35.89
20368;BME280;10343;52.402;9.796;2023-03-31T12:53:19;98892.03;;;26.33;36.33
20368;BME280;10343;52.402;9.796;2023-03-31T12:55:54;98890.19;;;26.25;36.24
20368;BME280;10343;52.402;9.796;2023-03-31T12:58:42;98884.13;;;26.61;35.93
20368;BME280;10343;52.402;9.796;2023-03-31T13:01:17;98887.63;;;28.19;33.94
20368;BME280;10343;52.402;9.796;2023-03-31T13:03:48;98875.28;;;28.02;33.92
20368;BME280;10343;52.402;9.796;2023-03-31T13:06:51;98870.28;;;27.09;34.96
20368;BME280;10343;52.402;9.796;2023-03-31T13:09:40;98879.22;;;27.99;33.85
20368;BME280;10343;52.402;9.796;2023-03-31T13:12:14;98872.56;;;27.50;34.37
20368;BME280;10343;52.402;9.796;2023-03-31T13:14:44;98867.13;;;27.50;33.87
20368;BME280;10343;52.402;9.796;2023-03-31T13:17:21;98871.63;;;26.37;35.64
20368;BME280;10343;52.402;9.796;2023-03-31T13:19:51;98867.81;;;27.74;34.25
20368;BME280;10343;52.402;9.796;2023-03-31T13:22:35;98868.50;;;27.97;33.24
20368;BME280;10343;52.402;9.796;2023-03-31T13:25:26;98866.41;;;28.36;32.55
20368;BME280;10343;52.402;9.796;2023-03-31T13:28:08;98870.78;;;29.09;32.06
20368;BME280;10343;52.402;9.796;2023-03-31T13:30:49;98868.72;;;25.84;35.82
20368;BME280;10343;52.402;9.796;2023-03-31T13:33:27;98868.22;;;25.49;37.15
20368;BME280;10343;52.402;9.796;2023-03-31T13:36:18;98871.06;;;25.87;37.01
20368;BME280;10343;52.402;9.796;2023-03-31T13:39:01;98878.59;;;25.29;37.62
20368;BME280;10343;52.402;9.796;2023-03-31T13:41:47;98877.91;;;25.43;37.60
20368;BME280;10343;52.402;9.796;2023-03-31T13:44:45;98869.56;;;26.39;35.39
20368;BME280;10343;52.402;9.796;2023-03-31T13:47:54;98865.59;;;27.33;34.63
20368;BME280;10343;52.402;9.796;2023-03-31T13:50:46;98864.44;;;26.44;35.61